METAR Data
IDs: Format: Raw Decoded Include TAF

Data at: 2350 UTC 24 Apr 2019

PABL 242256Z AUTO 17007KT 10SM OVC030 01/M06 A3020 RMK AO2 SLP227 T00061056 FZRANO
PABL 242156Z AUTO 16007KT 10SM OVC034 01/M05 A3019 RMK AO2 SLP224 T00061050 FZRANO
PABL 242116Z AUTO 15007KT 10SM BKN030 M01/M04 A3018 RMK AO2 FZRANO
PABL 242056Z AUTO 17009KT 10SM BKN026 M01/M04 A3017 RMK AO2 SLP220 T10061044 51009 FZRANO
PABL 241956Z AUTO 15010KT 10SM OVC028 M01/M04 A3016 RMK AO2 SLP216 T10111044 FZRANO
PABL 241953Z AUTO 15009KT 10SM OVC028 M01/M04 A3016 RMK AO2 FZRANO
PABL 241856Z AUTO 11007KT 10SM OVC032 M02/M04 A3015 RMK AO2 SLP211 T10171044 FZRANO
PABL 241811Z AUTO 12006KT 10SM SCT021 OVC038 M02/M04 A3013 RMK AO2 FZRANO
PABL 241756Z AUTO 10005KT 10SM BKN023 OVC038 M02/M04 A3013 RMK AO2 SLP205 60000 T10221044 11022 21033 51016 FZRANO
PABL 241741Z AUTO 11006KT 10SM SCT008 BKN023 OVC038 M02/M04 A3013 RMK AO2 FZRANO
PABL 241710Z AUTO 14003KT 10SM BKN008 OVC018 M03/M04 A3013 RMK AO2 FZRANO
PABL 241656Z AUTO 12004KT 10SM FEW008 OVC018 M03/M04 A3012 RMK AO2 SLP203 T10281044 FZRANO
PABL 241556Z AUTO 00000KT 10SM BKN020 BKN033 OVC042 M03/M04 A3010 RMK AO2 SLP196 T10331039 FZRANO
PABL 241456Z AUTO 13004KT 9SM OVC020 M03/M04 A3008 RMK AO2 SNE56 SLP189 P0000 60000 T10331044 53014 FZRANO
PABL 241356Z AUTO 00000KT 9SM -SN OVC020 M03/M04 A3007 RMK AO2 UPE14SNB14 SLP185 P0000 T10281039 FZRANO
PABL 241256Z AUTO 00000KT 10SM UP OVC024 M02/M03 A3005 RMK AO2 UPB48 SLP180 P0000 T10221033 FZRANO
PABL 241156Z AUTO 00000KT 10SM OVC026 M03/M04 A3004 RMK AO2 SLP176 T10281039 10000 21028 51020 FZRANO
PABL 241120Z AUTO 00000KT 10SM OVC028 M02/M04 A3003 RMK AO2 FZRANO
PABL 241056Z AUTO 00000KT 10SM OVC032 M02/M04 A3003 RMK AO2 SLP170 T10221039 FZRANO
PABL 241025Z AUTO 11004KT 10SM SCT014 OVC030 M03/M04 A3002 RMK AO2 FZRANO
PABL 240956Z AUTO 08005KT 10SM OVC012 M03/M04 A3001 RMK AO2 SLP163 T10281044 FZRANO
PABL 240931Z AUTO 00000KT 10SM SCT012 OVC034 M02/M03 A3000 RMK AO2 FZRANO
PABL 240856Z AUTO 00000KT 10SM OVC014 M02/M04 A2998 RMK AO2 SLP156 T10221039 53022 FZRANO
PABL 240756Z AUTO 02005KT 10SM OVC014 M02/M03 A2996 RMK AO2 SLP148 T10171033 400391028 FZRANO
PABL 240656Z AUTO 05004KT 10SM OVC014 M01/M03 A2994 RMK AO2 SLP141 T10111028 FZRANO
PABL 240529Z AUTO 11003KT 10SM OVC014 01/M02 A2991 RMK AO2 FZRANO
PABL 240456Z AUTO 13004KT 10SM OVC016 00/M02 A2990 RMK AO2 SLP126 T00001017 FZRANO
PABL 240356Z AUTO 13004KT 10SM OVC016 01/M02 A2988 RMK AO2 SLP121 T00111022 FZRANO
PABL 240256Z AUTO 18004KT 10SM OVC022 02/M03 A2986 RMK AO2 SLP114 60000 T00171028 53016 FZRANO
PABL 240156Z AUTO 19008KT 10SM OVC026 01/M02 A2984 RMK AO2 RAB26E54 SLP107 P0000 T00111022 FZRANO
PABL 240119Z AUTO 16010KT 10SM BKN028 BKN040 03/M04 A2983 RMK AO2
PABL 240054Z AUTO 13007KT 10SM SCT024 03/M04 A2982 RMK AO2
PABL 240013Z AUTO 35003KT 10SM BKN026 OVC042 03/M03 A2980 RMK AO2
PABL 232356Z AUTO 06004KT 10SM FEW025 BKN042 BKN075 03/M04 A2980 RMK AO2 SLP093 T00331039 10033 21017 51016
PABL 232156Z AUTO VRB04KT 10SM CLR 03/M05 A2977 RMK AO2 SLP083 T00281050
PABL 232056Z AUTO 33012KT 10SM CLR 01/M07 A2975 RMK AO2 SLP077 T00061067 51015 FZRANO
PABL 231956Z AUTO 32010KT 10SM BKN046 OVC055 00/M07 A2974 RMK AO2 SLP073 T00001067 FZRANO
PABL 231856Z AUTO 32010KT 10SM OVC048 M01/M07 A2972 RMK AO2 SLP068 T10111067 FZRANO
PABL 231756Z AUTO 32010KT 10SM FEW040 OVC055 M02/M07 A2971 RMK AO2 SLP062 60000 T10171067 11017 21028 52019 FZRANO
PABL 231556Z AUTO 31011KT 10SM BKN050 OVC075 M03/M07 A2967 RMK AO2 SLP048 T10281072 FZRANO
PABL 231456Z AUTO 30008KT 10SM OVC065 M03/M07 A2965 RMK AO2 SLP042 60000 T10281067 53014 FZRANO
PABL 231356Z AUTO 30004KT 10SM BKN060 OVC075 M03/M06 A2963 RMK AO2 SLP037 T10281056 FZRANO
PABL 231256Z AUTO 28006KT 10SM BKN041 OVC049 M03/M06 A2962 RMK AO2 SNB25E36 SLP032 P0000 T10281056 FZRANO
PABL 231156Z AUTO 30008KT 10SM OVC055 M03/M06 A2961 RMK AO2 SLP028 T10281061 10006 21028 51018 FZRANO